sensor_id;sensor_type;location;lat;lon;timestamp;pressure;altitude;pressure_sealevel;temperature;humidity
77877;BME280;67251;50.844;7.978;2024-02-21T00:02:02;99563.31;;;5.18;97.17
77877;BME280;67251;50.844;7.978;2024-02-21T00:04:28;99553.66;;;5.17;96.74
77877;BME280;67251;50.844;7.978;2024-02-21T00:06:53;99550.16;;;5.17;97.43
77877;BME280;67251;50.844;7.978;2024-02-21T00:09:19;99553.53;;;5.19;96.97
77877;BME280;67251;50.844;7.978;2024-02-21T00:11:45;99551.88;;;5.18;97.65
77877;BME280;67251;50.844;7.978;2024-02-21T00:14:10;99542.22;;;5.17;97.12
77877;BME280;67251;50.844;7.978;2024-02-21T00:16:36;99537.63;;;5.19;96.96
77877;BME280;67251;50.844;7.978;2024-02-21T00:19:01;99539.44;;;5.18;97.66
77877;BME280;67251;50.844;7.978;2024-02-21T00:21:27;99544.03;;;5.16;97.57
77877;BME280;67251;50.844;7.978;2024-02-21T00:23:52;99543.19;;;5.16;97.38
77877;BME280;67251;50.844;7.978;2024-02-21T00:26:19;99539.56;;;5.17;96.81
77877;BME280;67251;50.844;7.978;2024-02-21T00:28:44;99544.56;;;5.20;97.48
77877;BME280;67251;50.844;7.978;2024-02-21T00:31:10;99545.41;;;5.20;97.42
77877;BME280;67251;50.844;7.978;2024-02-21T00:33:35;99546.13;;;5.22;97.57
77877;BME280;67251;50.844;7.978;2024-02-21T00:36:01;99534.78;;;5.20;98.15
77877;BME280;67251;50.844;7.978;2024-02-21T00:38:26;99533.28;;;5.18;98.11
77877;BME280;67251;50.844;7.978;2024-02-21T00:40:51;99533.28;;;5.18;98.38
77877;BME280;67251;50.844;7.978;2024-02-21T00:43:17;99536.63;;;5.20;98.06
77877;BME280;67251;50.844;7.978;2024-02-21T00:45:42;99521.81;;;5.17;98.56
77877;BME280;67251;50.844;7.978;2024-02-21T00:48:07;99511.38;;;5.16;98.65
77877;BME280;67251;50.844;7.978;2024-02-21T00:50:33;99509.72;;;5.15;99.04
77877;BME280;67251;50.844;7.978;2024-02-21T00:52:58;99514.84;;;5.16;98.44
77877;BME280;67251;50.844;7.978;2024-02-21T00:55:23;99513.03;;;5.17;98.59
77877;BME280;67251;50.844;7.978;2024-02-21T00:57:49;99513.03;;;5.17;99.35
77877;BME280;67251;50.844;7.978;2024-02-21T01:00:14;99513.03;;;5.17;99.00
77877;BME280;67251;50.844;7.978;2024-02-21T01:02:40;99504.25;;;5.16;99.11
77877;BME280;67251;50.844;7.978;2024-02-21T01:05:05;99500.75;;;5.16;99.23
77877;BME280;67251;50.844;7.978;2024-02-21T01:07:31;99505.22;;;5.15;99.30
77877;BME280;67251;50.844;7.978;2024-02-21T01:09:56;99502.59;;;5.15;99.96
77877;BME280;67251;50.844;7.978;2024-02-21T01:12:22;99499.94;;;5.15;99.54
77877;BME280;67251;50.844;7.978;2024-02-21T01:14:47;99498.09;;;5.16;99.55
77877;BME280;67251;50.844;7.978;2024-02-21T01:17:14;99493.50;;;5.18;99.04
77877;BME280;67251;50.844;7.978;2024-02-21T01:19:39;99496.00;;;5.19;99.36
77877;BME280;67251;50.844;7.978;2024-02-21T01:22:05;99497.81;;;5.19;99.75
77877;BME280;67251;50.844;7.978;2024-02-21T01:24:30;99497.81;;;5.19;99.65
77877;BME280;67251;50.844;7.978;2024-02-21T01:26:55;99498.81;;;5.18;99.81
77877;BME280;67251;50.844;7.978;2024-02-21T01:29:21;99483.19;;;5.15;100.00
77877;BME280;67251;50.844;7.978;2024-02-21T01:31:46;99488.50;;;5.15;100.00
77877;BME280;67251;50.844;7.978;2024-02-21T01:34:12;99478.03;;;5.13;100.00
77877;BME280;67251;50.844;7.978;2024-02-21T01:36:38;99490.44;;;5.12;100.00
77877;BME280;67251;50.844;7.978;2024-02-21T01:39:03;99478.88;;;5.13;99.93
77877;BME280;67251;50.844;7.978;2024-02-21T01:42:18;99484.00;;;5.15;100.00
77877;BME280;67251;50.844;7.978;2024-02-21T01:44:43;99486.81;;;5.13;100.00
77877;BME280;67251;50.844;7.978;2024-02-21T01:47:10;99482.47;;;5.12;100.00
77877;BME280;67251;50.844;7.978;2024-02-21T01:49:36;99472.84;;;5.11;100.00
77877;BME280;67251;50.844;7.978;2024-02-21T01:52:02;99455.28;;;5.10;99.98
77877;BME280;67251;50.844;7.978;2024-02-21T01:54:28;99450.66;;;5.12;100.00
77877;BME280;67251;50.844;7.978;2024-02-21T01:56:54;99463.09;;;5.12;100.00
77877;BME280;67251;50.844;7.978;2024-02-21T01:59:21;99453.63;;;5.09;100.00
77877;BME280;67251;50.844;7.978;2024-02-21T02:01:46;99457.25;;;5.08;100.00
77877;BME280;67251;50.844;7.978;2024-02-21T02:04:13;99453.91;;;5.06;100.00
77877;BME280;67251;50.844;7.978;2024-02-21T02:06:39;99441.47;;;5.07;100.00
77877;BME280;67251;50.844;7.978;2024-02-21T02:09:05;99439.66;;;5.07;100.00
77877;BME280;67251;50.844;7.978;2024-02-21T02:11:31;99435.34;;;5.06;100.00
77877;BME280;67251;50.844;7.978;2024-02-21T02:13:57;99430.22;;;5.05;100.00
77877;BME280;67251;50.844;7.978;2024-02-21T02:16:22;99408.00;;;5.06;100.00
77877;BME280;67251;50.844;7.978;2024-02-21T02:18:48;99413.47;;;5.04;100.00
77877;BME280;67251;50.844;7.978;2024-02-21T02:21:27;99418.75;;;5.04;100.00
77877;BME280;67251;50.844;7.978;2024-02-21T02:23:54;99415.28;;;5.04;100.00
77877;BME280;67251;50.844;7.978;2024-02-21T02:26:19;99409.81;;;5.05;100.00
77877;BME280;67251;50.844;7.978;2024-02-21T02:28:45;99411.78;;;5.03;100.00
77877;BME280;67251;50.844;7.978;2024-02-21T02:31:10;99404.81;;;5.02;100.00
77877;BME280;67251;50.844;7.978;2024-02-21T02:33:36;99410.09;;;5.02;100.00
77877;BME280;67251;50.844;7.978;2024-02-21T02:36:01;99404.81;;;5.02;100.00
77877;BME280;67251;50.844;7.978;2024-02-21T02:38:27;99398.66;;;5.02;100.00
77877;BME280;67251;50.844;7.978;2024-02-21T02:40:52;99397.84;;;5.01;100.00
77877;BME280;67251;50.844;7.978;2024-02-21T02:43:17;99398.66;;;5.02;100.00
77877;BME280;67251;50.844;7.978;2024-02-21T02:45:43;99386.41;;;5.01;100.00
77877;BME280;67251;50.844;7.978;2024-02-21T02:48:08;99376.78;;;5.00;100.00
77877;BME280;67251;50.844;7.978;2024-02-21T02:50:34;99372.47;;;4.99;100.00
77877;BME280;67251;50.844;7.978;2024-02-21T02:52:59;99363.66;;;4.98;100.00
77877;BME280;67251;50.844;7.978;2024-02-21T02:55:25;99359.06;;;5.00;99.86
77877;BME280;67251;50.844;7.978;2024-02-21T02:57:51;99354.41;;;5.02;99.93
77877;BME280;67251;50.844;7.978;2024-02-21T03:00:17;99353.59;;;5.02;100.00
77877;BME280;67251;50.844;7.978;2024-02-21T03:02:43;99341.16;;;5.02;100.00
77877;BME280;67251;50.844;7.978;2024-02-21T03:05:12;99339.50;;;5.01;100.00
77877;BME280;67251;50.844;7.978;2024-02-21T03:07:39;99338.81;;;4.99;100.00
77877;BME280;67251;50.844;7.978;2024-02-21T03:10:05;99336.19;;;4.99;100.00
77877;BME280;67251;50.844;7.978;2024-02-21T03:12:30;99343.44;;;4.97;100.00
77877;BME280;67251;50.844;7.978;2024-02-21T03:14:56;99340.94;;;4.96;100.00
77877;BME280;67251;50.844;7.978;2024-02-21T03:17:21;99335.63;;;4.96;100.00
77877;BME280;67251;50.844;7.978;2024-02-21T03:19:48;99343.59;;;4.96;100.00
77877;BME280;67251;50.844;7.978;2024-02-21T03:22:15;99351.56;;;4.96;100.00
77877;BME280;67251;50.844;7.978;2024-02-21T03:24:41;99340.94;;;4.96;100.00
77877;BME280;67251;50.844;7.978;2024-02-21T03:27:07;99339.94;;;4.97;100.00
77877;BME280;67251;50.844;7.978;2024-02-21T03:29:32;99348.06;;;4.95;100.00
77877;BME280;67251;50.844;7.978;2024-02-21T03:31:57;99345.41;;;4.95;100.00
77877;BME280;67251;50.844;7.978;2024-02-21T03:34:23;99342.78;;;4.95;100.00
77877;BME280;67251;50.844;7.978;2024-02-21T03:36:48;99333.00;;;4.96;100.00
77877;BME280;67251;50.844;7.978;2024-02-21T03:39:13;99332.16;;;4.95;100.00
77877;BME280;67251;50.844;7.978;2024-02-21T03:41:39;99336.63;;;4.95;100.00
77877;BME280;67251;50.844;7.978;2024-02-21T03:44:04;99338.47;;;4.94;100.00
77877;BME280;67251;50.844;7.978;2024-02-21T03:46:30;99342.91;;;4.94;100.00
77877;BME280;67251;50.844;7.978;2024-02-21T03:48:57;99337.75;;;4.92;100.00
77877;BME280;67251;50.844;7.978;2024-02-21T03:51:22;99336.25;;;4.90;100.00
77877;BME280;67251;50.844;7.978;2024-02-21T03:53:48;99325.78;;;4.88;100.00
77877;BME280;67251;50.844;7.978;2024-02-21T03:56:13;99314.34;;;4.87;100.00
77877;BME280;67251;50.844;7.978;2024-02-21T03:58:39;99317.16;;;4.86;100.00
77877;BME280;67251;50.844;7.978;2024-02-21T04:01:04;99319.94;;;4.84;100.00
77877;BME280;67251;50.844;7.978;2024-02-21T04:03:30;99308.50;;;4.84;100.00
77877;BME280;67251;50.844;7.978;2024-02-21T04:05:56;99305.88;;;4.84;100.00
77877;BME280;67251;50.844;7.978;2024-02-21T04:08:22;99298.06;;;4.82;100.00
77877;BME280;67251;50.844;7.978;2024-02-21T04:10:48;99295.25;;;4.84;100.00
77877;BME280;67251;50.844;7.978;2024-02-21T04:13:13;99291.94;;;4.82;100.00
77877;BME280;67251;50.844;7.978;2024-02-21T04:15:39;99294.59;;;4.82;100.00
77877;BME280;67251;50.844;7.978;2024-02-21T04:18:07;99285.81;;;4.81;100.00
77877;BME280;67251;50.844;7.978;2024-02-21T04:20:40;99281.34;;;4.82;100.00
77877;BME280;67251;50.844;7.978;2024-02-21T04:23:06;99289.28;;;4.82;100.00
77877;BME280;67251;50.844;7.978;2024-02-21T04:25:36;99296.94;;;4.85;100.00
77877;BME280;67251;50.844;7.978;2024-02-21T04:28:05;99284.66;;;4.84;100.00
77877;BME280;67251;50.844;7.978;2024-02-21T04:30:33;99289.97;;;4.84;100.00
77877;BME280;67251;50.844;7.978;2024-02-21T04:33:14;99285.47;;;4.84;100.00
77877;BME280;67251;50.844;7.978;2024-02-21T04:35:42;99287.31;;;4.84;100.00
77877;BME280;67251;50.844;7.978;2024-02-21T04:38:15;99278.38;;;4.85;100.00
77877;BME280;67251;50.844;7.978;2024-02-21T04:40:43;99279.22;;;4.85;100.00
77877;BME280;67251;50.844;7.978;2024-02-21T04:43:08;99277.41;;;4.86;100.00
77877;BME280;67251;50.844;7.978;2024-02-21T04:45:33;99271.41;;;4.84;100.00
77877;BME280;67251;50.844;7.978;2024-02-21T04:47:59;99277.69;;;4.83;100.00
77877;BME280;67251;50.844;7.978;2024-02-21T04:50:24;99278.69;;;4.82;100.00
77877;BME280;67251;50.844;7.978;2024-02-21T04:52:54;99275.38;;;4.80;100.00
77877;BME280;67251;50.844;7.978;2024-02-21T04:55:22;99269.06;;;4.81;100.00
77877;BME280;67251;50.844;7.978;2024-02-21T04:57:47;99270.72;;;4.82;100.00
77877;BME280;67251;50.844;7.978;2024-02-21T05:00:16;99273.53;;;4.80;100.00
77877;BME280;67251;50.844;7.978;2024-02-21T05:02:44;99269.91;;;4.81;100.00
77877;BME280;67251;50.844;7.978;2024-02-21T05:05:09;99265.72;;;4.79;100.00
77877;BME280;67251;50.844;7.978;2024-02-21T05:07:43;99270.06;;;4.80;100.00
77877;BME280;67251;50.844;7.978;2024-02-21T05:10:08;99269.06;;;4.81;100.00
77877;BME280;67251;50.844;7.978;2024-02-21T05:12:39;99267.09;;;4.83;100.00
77877;BME280;67251;50.844;7.978;2024-02-21T05:15:07;99254.53;;;4.85;100.00
77877;BME280;67251;50.844;7.978;2024-02-21T05:17:33;99267.47;;;4.88;100.00
77877;BME280;67251;50.844;7.978;2024-02-21T05:20:04;99267.63;;;4.86;100.00
77877;BME280;67251;50.844;7.978;2024-02-21T05:22:34;99256.19;;;4.86;100.00
77877;BME280;67251;50.844;7.978;2024-02-21T05:24:59;99264.28;;;4.84;100.00
77877;BME280;67251;50.844;7.978;2024-02-21T05:27:28;99267.91;;;4.83;100.00
77877;BME280;67251;50.844;7.978;2024-02-21T05:29:54;99262.63;;;4.83;100.00
77877;BME280;67251;50.844;7.978;2024-02-21T05:32:22;99267.09;;;4.83;100.00
77877;BME280;67251;50.844;7.978;2024-02-21T05:34:50;99267.09;;;4.83;100.00
77877;BME280;67251;50.844;7.978;2024-02-21T05:37:16;99260.78;;;4.84;100.00
77877;BME280;67251;50.844;7.978;2024-02-21T05:39:43;99263.44;;;4.84;100.00
77877;BME280;67251;50.844;7.978;2024-02-21T05:42:11;99261.78;;;4.83;100.00
77877;BME280;67251;50.844;7.978;2024-02-21T05:44:43;99267.91;;;4.83;100.00
77877;BME280;67251;50.844;7.978;2024-02-21T05:47:08;99267.78;;;4.85;100.00
77877;BME280;67251;50.844;7.978;2024-02-21T05:49:41;99268.75;;;4.84;100.00
77877;BME280;67251;50.844;7.978;2024-02-21T05:52:09;99262.47;;;4.85;100.00
77877;BME280;67251;50.844;7.978;2024-02-21T05:54:46;99268.44;;;4.87;100.00
77877;BME280;67251;50.844;7.978;2024-02-21T05:57:12;99261.31;;;4.87;100.00
77877;BME280;67251;50.844;7.978;2024-02-21T05:59:40;99260.31;;;4.88;100.00
77877;BME280;67251;50.844;7.978;2024-02-21T06:02:07;99257.84;;;4.87;100.00
77877;BME280;67251;50.844;7.978;2024-02-21T06:04:38;99260.50;;;4.87;100.00
77877;BME280;67251;50.844;7.978;2024-02-21T06:07:04;99251.72;;;4.86;100.00
77877;BME280;67251;50.844;7.978;2024-02-21T06:09:33;99253.53;;;4.86;100.00
77877;BME280;67251;50.844;7.978;2024-02-21T06:12:00;99241.28;;;4.85;100.00
77877;BME280;67251;50.844;7.978;2024-02-21T06:14:26;99242.22;;;4.84;100.00
77877;BME280;67251;50.844;7.978;2024-02-21T06:16:51;99250.19;;;4.84;100.00
77877;BME280;67251;50.844;7.978;2024-02-21T06:19:22;99247.69;;;4.82;100.00
77877;BME280;67251;50.844;7.978;2024-02-21T06:21:53;99250.50;;;4.81;100.00
77877;BME280;67251;50.844;7.978;2024-02-21T06:24:27;99247.03;;;4.80;100.00
77877;BME280;67251;50.844;7.978;2024-02-21T06:26:55;99257.63;;;4.80;100.00
77877;BME280;67251;50.844;7.978;2024-02-21T06:29:28;99255.94;;;4.79;100.00
77877;BME280;67251;50.844;7.978;2024-02-21T06:32:02;99247.88;;;4.81;100.00
77877;BME280;67251;50.844;7.978;2024-02-21T06:34:37;99250.34;;;4.82;99.71
77877;BME280;67251;50.844;7.978;2024-02-21T06:37:02;99250.34;;;4.82;99.93
77877;BME280;67251;50.844;7.978;2024-02-21T06:39:30;99249.53;;;4.82;99.91
77877;BME280;67251;50.844;7.978;2024-02-21T06:41:56;99242.56;;;4.81;100.00
77877;BME280;67251;50.844;7.978;2024-02-21T06:44:24;99237.25;;;4.81;99.80
77877;BME280;67251;50.844;7.978;2024-02-21T06:46:50;99239.09;;;4.80;99.55
77877;BME280;67251;50.844;7.978;2024-02-21T06:49:18;99233.63;;;4.82;99.83
77877;BME280;67251;50.844;7.978;2024-02-21T06:51:47;99227.31;;;4.83;99.75
77877;BME280;67251;50.844;7.978;2024-02-21T06:54:12;99225.50;;;4.83;99.79
77877;BME280;67251;50.844;7.978;2024-02-21T06:56:43;99214.88;;;4.83;100.00
77877;BME280;67251;50.844;7.978;2024-02-21T06:59:17;99215.41;;;4.87;99.65
77877;BME280;67251;50.844;7.978;2024-02-21T07:01:54;99216.78;;;4.91;99.66
77877;BME280;67251;50.844;7.978;2024-02-21T07:04:22;99207.53;;;4.95;99.66
77877;BME280;67251;50.844;7.978;2024-02-21T07:06:48;99209.19;;;4.96;99.80
77877;BME280;67251;50.844;7.978;2024-02-21T07:09:19;99213.50;;;4.97;98.98
77877;BME280;67251;50.844;7.978;2024-02-21T07:11:44;99206.06;;;5.01;99.29
77877;BME280;67251;50.844;7.978;2024-02-21T07:14:10;99212.56;;;5.06;99.78
77877;BME280;67251;50.844;7.978;2024-02-21T07:16:35;99206.47;;;5.14;99.05
77877;BME280;67251;50.844;7.978;2024-02-21T07:19:00;99211.84;;;5.22;99.34
77877;BME280;67251;50.844;7.978;2024-02-21T07:21:26;99206.41;;;5.32;98.21
77877;BME280;67251;50.844;7.978;2024-02-21T07:23:51;99210.06;;;5.39;97.26
77877;BME280;67251;50.844;7.978;2024-02-21T07:26:17;99204.47;;;5.50;96.80
77877;BME280;67251;50.844;7.978;2024-02-21T07:28:42;99208.34;;;5.56;94.91
77877;BME280;67251;50.844;7.978;2024-02-21T07:31:07;99211.34;;;5.69;94.65
77877;BME280;67251;50.844;7.978;2024-02-21T07:33:32;99209.72;;;5.76;94.34
77877;BME280;67251;50.844;7.978;2024-02-21T07:35:58;99211.72;;;5.82;93.82
77877;BME280;67251;50.844;7.978;2024-02-21T07:38:23;99204.75;;;5.81;93.25
77877;BME280;67251;50.844;7.978;2024-02-21T07:40:49;99195.47;;;5.85;92.75
77877;BME280;67251;50.844;7.978;2024-02-21T07:43:14;99209.25;;;5.89;92.16
77877;BME280;67251;50.844;7.978;2024-02-21T07:45:39;99201.66;;;5.94;91.60
77877;BME280;67251;50.844;7.978;2024-02-21T07:48:05;99190.69;;;5.97;91.53
77877;BME280;67251;50.844;7.978;2024-02-21T07:50:31;99191.56;;;5.98;90.92
77877;BME280;67251;50.844;7.978;2024-02-21T07:52:57;99184.41;;;5.98;90.99
77877;BME280;67251;50.844;7.978;2024-02-21T07:55:22;99185.41;;;6.05;90.29
77877;BME280;67251;50.844;7.978;2024-02-21T07:57:47;99178.13;;;6.15;89.22
77877;BME280;67251;50.844;7.978;2024-02-21T08:00:13;99184.13;;;6.26;88.42
77877;BME280;67251;50.844;7.978;2024-02-21T08:02:50;99174.47;;;6.33;87.09
77877;BME280;67251;50.844;7.978;2024-02-21T08:05:16;99166.34;;;6.43;86.76
77877;BME280;67251;50.844;7.978;2024-02-21T08:07:41;99166.34;;;6.51;87.56
77877;BME280;67251;50.844;7.978;2024-02-21T08:10:07;99159.38;;;6.42;85.79
77877;BME280;67251;50.844;7.978;2024-02-21T08:12:33;99159.38;;;6.42;86.95
77877;BME280;67251;50.844;7.978;2024-02-21T08:14:58;99165.84;;;6.39;86.59
77877;BME280;67251;50.844;7.978;2024-02-21T08:17:24;99171.00;;;6.32;86.76
77877;BME280;67251;50.844;7.978;2024-02-21T08:19:49;99174.31;;;6.26;87.72
77877;BME280;67251;50.844;7.978;2024-02-21T08:22:15;99157.53;;;6.34;87.79
77877;BME280;67251;50.844;7.978;2024-02-21T08:24:41;99145.56;;;6.38;86.90
77877;BME280;67251;50.844;7.978;2024-02-21T08:27:06;99146.75;;;6.27;86.26
77877;BME280;67251;50.844;7.978;2024-02-21T08:29:33;99149.06;;;6.30;86.00
77877;BME280;67251;50.844;7.978;2024-02-21T08:31:58;99141.59;;;6.26;86.74
77877;BME280;67251;50.844;7.978;2024-02-21T08:34:24;99135.63;;;6.24;86.43
77877;BME280;67251;50.844;7.978;2024-02-21T08:36:49;99123.81;;;6.18;87.25
77877;BME280;67251;50.844;7.978;2024-02-21T08:39:15;99127.31;;;6.27;86.60
77877;BME280;67251;50.844;7.978;2024-02-21T08:41:43;99122.84;;;6.35;85.88
77877;BME280;67251;50.844;7.978;2024-02-21T08:44:08;99122.16;;;6.25;85.85
77877;BME280;67251;50.844;7.978;2024-02-21T08:46:33;99118.69;;;6.17;87.09
77877;BME280;67251;50.844;7.978;2024-02-21T08:48:59;99113.53;;;6.23;86.28
77877;BME280;67251;50.844;7.978;2024-02-21T08:51:24;99111.22;;;6.12;86.28
77877;BME280;67251;50.844;7.978;2024-02-21T08:53:50;99113.38;;;6.08;86.46
77877;BME280;67251;50.844;7.978;2024-02-21T08:56:16;99115.03;;;6.09;86.75
77877;BME280;67251;50.844;7.978;2024-02-21T08:58:42;99107.38;;;6.14;87.70
77877;BME280;67251;50.844;7.978;2024-02-21T09:01:08;99103.72;;;6.24;85.91
77877;BME280;67251;50.844;7.978;2024-02-21T09:03:38;99088.59;;;6.40;86.29
77877;BME280;67251;50.844;7.978;2024-02-21T09:06:07;99089.06;;;6.44;84.78
77877;BME280;67251;50.844;7.978;2024-02-21T09:08:33;99092.59;;;6.36;85.76
77877;BME280;67251;50.844;7.978;2024-02-21T09:10:59;99094.06;;;6.39;84.90
77877;BME280;67251;50.844;7.978;2024-02-21T09:13:25;99091.28;;;6.32;83.38
77877;BME280;67251;50.844;7.978;2024-02-21T09:15:50;99097.41;;;6.33;84.39
77877;BME280;67251;50.844;7.978;2024-02-21T09:18:16;99086.78;;;6.41;84.22
77877;BME280;67251;50.844;7.978;2024-02-21T09:20:42;99090.41;;;6.48;83.92
77877;BME280;67251;50.844;7.978;2024-02-21T09:23:07;99100.03;;;6.49;84.31
77877;BME280;67251;50.844;7.978;2024-02-21T09:25:33;99105.19;;;6.51;83.76
77877;BME280;67251;50.844;7.978;2024-02-21T09:27:59;99103.53;;;6.50;84.12
77877;BME280;67251;50.844;7.978;2024-02-21T09:30:24;99087.25;;;6.53;83.50
77877;BME280;67251;50.844;7.978;2024-02-21T09:32:50;99088.75;;;6.47;81.16
77877;BME280;67251;50.844;7.978;2024-02-21T09:35:15;99074.44;;;6.48;80.35
77877;BME280;67251;50.844;7.978;2024-02-21T09:37:41;99075.59;;;6.62;80.34
77877;BME280;67251;50.844;7.978;2024-02-21T09:40:06;99073.25;;;6.67;78.11
77877;BME280;67251;50.844;7.978;2024-02-21T09:42:39;99073.59;;;6.64;79.18
77877;BME280;67251;50.844;7.978;2024-02-21T09:45:10;99071.69;;;6.89;79.83
77877;BME280;67251;50.844;7.978;2024-02-21T09:47:48;99057.78;;;7.10;78.21
77877;BME280;67251;50.844;7.978;2024-02-21T09:50:17;99053.56;;;7.24;77.05
77877;BME280;67251;50.844;7.978;2024-02-21T09:52:43;99052.13;;;7.44;76.15
77877;BME280;67251;50.844;7.978;2024-02-21T09:55:10;99038.66;;;7.68;75.18
77877;BME280;67251;50.844;7.978;2024-02-21T09:57:38;99048.03;;;8.02;72.69
77877;BME280;67251;50.844;7.978;2024-02-21T10:00:04;99037.59;;;8.15;71.58
77877;BME280;67251;50.844;7.978;2024-02-21T10:02:33;99031.16;;;8.48;70.40
77877;BME280;67251;50.844;7.978;2024-02-21T10:04:58;99020.19;;;8.87;69.18
77877;BME280;67251;50.844;7.978;2024-02-21T10:07:24;99024.88;;;8.85;65.63
77877;BME280;67251;50.844;7.978;2024-02-21T10:10:00;99009.44;;;8.80;66.97
77877;BME280;67251;50.844;7.978;2024-02-21T10:12:26;99008.69;;;8.86;66.42
77877;BME280;67251;50.844;7.978;2024-02-21T10:15:03;99004.09;;;8.80;66.63
77877;BME280;67251;50.844;7.978;2024-02-21T10:17:28;99024.19;;;8.98;66.05
77877;BME280;67251;50.844;7.978;2024-02-21T10:19:53;99000.78;;;8.78;64.93
77877;BME280;67251;50.844;7.978;2024-02-21T10:22:19;99006.19;;;8.70;66.46
77877;BME280;67251;50.844;7.978;2024-02-21T10:24:46;99020.91;;;8.95;66.47
77877;BME280;67251;50.844;7.978;2024-02-21T10:27:11;99004.63;;;8.90;64.42
77877;BME280;67251;50.844;7.978;2024-02-21T10:29:37;99006.03;;;9.23;64.96
77877;BME280;67251;50.844;7.978;2024-02-21T10:32:11;99004.75;;;9.40;62.48
77877;BME280;67251;50.844;7.978;2024-02-21T10:34:38;98991.16;;;9.78;62.96
77877;BME280;67251;50.844;7.978;2024-02-21T10:37:05;98996.41;;;9.92;61.81
77877;BME280;67251;50.844;7.978;2024-02-21T10:39:49;98990.59;;;10.10;60.84
77877;BME280;67251;50.844;7.978;2024-02-21T10:42:17;98992.94;;;10.20;60.59
77877;BME280;67251;50.844;7.978;2024-02-21T10:44:50;98989.78;;;10.38;61.41
77877;BME280;67251;50.844;7.978;2024-02-21T10:47:16;98983.00;;;10.35;60.51
77877;BME280;67251;50.844;7.978;2024-02-21T10:49:49;98987.13;;;10.38;61.41
77877;BME280;67251;50.844;7.978;2024-02-21T10:55:09;98968.19;;;10.81;59.49
77877;BME280;67251;50.844;7.978;2024-02-21T10:57:37;98963.16;;;11.06;59.22
77877;BME280;67251;50.844;7.978;2024-02-21T11:00:04;98962.00;;;10.73;58.11
77877;BME280;67251;50.844;7.978;2024-02-21T11:02:34;98957.25;;;10.75;58.79
77877;BME280;67251;50.844;7.978;2024-02-21T11:05:01;98948.19;;;10.70;59.33
77877;BME280;67251;50.844;7.978;2024-02-21T11:07:29;98943.66;;;10.70;58.58
77877;BME280;67251;50.844;7.978;2024-02-21T11:09:54;98943.53;;;10.92;58.15
77877;BME280;67251;50.844;7.978;2024-02-21T11:12:23;98936.78;;;11.03;58.24
77877;BME280;67251;50.844;7.978;2024-02-21T11:14:49;98928.81;;;10.68;57.14
77877;BME280;67251;50.844;7.978;2024-02-21T11:17:18;98923.13;;;10.08;57.96
77877;BME280;67251;50.844;7.978;2024-02-21T11:19:44;98927.25;;;10.11;59.29
77877;BME280;67251;50.844;7.978;2024-02-21T11:22:17;98920.59;;;10.69;58.90
77877;BME280;67251;50.844;7.978;2024-02-21T11:24:43;98924.38;;;10.88;57.43
77877;BME280;67251;50.844;7.978;2024-02-21T11:29:57;98902.63;;;11.31;55.67
77877;BME280;67251;50.844;7.978;2024-02-21T11:32:23;98898.91;;;11.06;57.38
77877;BME280;67251;50.844;7.978;2024-02-21T11:35:08;98903.19;;;11.00;57.96
77877;BME280;67251;50.844;7.978;2024-02-21T11:37:35;98896.41;;;10.97;57.36
77877;BME280;67251;50.844;7.978;2024-02-21T11:40:04;98901.81;;;10.63;58.48
77877;BME280;67251;50.844;7.978;2024-02-21T11:42:31;98885.16;;;10.54;58.71
77877;BME280;67251;50.844;7.978;2024-02-21T11:44:57;98886.50;;;10.37;57.46
77877;BME280;67251;50.844;7.978;2024-02-21T11:47:23;98875.81;;;10.43;59.13
77877;BME280;67251;50.844;7.978;2024-02-21T11:49:49;98865.31;;;10.42;59.99
77877;BME280;67251;50.844;7.978;2024-02-21T11:52:24;98868.75;;;10.29;59.69
77877;BME280;67251;50.844;7.978;2024-02-21T11:54:51;98862.38;;;9.89;59.16
77877;BME280;67251;50.844;7.978;2024-02-21T11:57:17;98844.22;;;10.19;60.31
77877;BME280;67251;50.844;7.978;2024-02-21T11:59:44;98840.59;;;10.27;60.66
77877;BME280;67251;50.844;7.978;2024-02-21T12:02:10;98839.69;;;10.19;58.41
77877;BME280;67251;50.844;7.978;2024-02-21T12:04:36;98835.03;;;9.93;57.93
77877;BME280;67251;50.844;7.978;2024-02-21T12:07:01;98817.00;;;9.67;59.63
77877;BME280;67251;50.844;7.978;2024-02-21T12:09:29;98812.28;;;9.69;59.24
77877;BME280;67251;50.844;7.978;2024-02-21T12:12:03;98803.38;;;9.97;59.90
77877;BME280;67251;50.844;7.978;2024-02-21T12:14:29;98791.75;;;10.18;58.82
77877;BME280;67251;50.844;7.978;2024-02-21T12:17:01;98812.47;;;10.03;57.70
77877;BME280;67251;50.844;7.978;2024-02-21T12:19:30;98804.78;;;10.28;57.80
77877;BME280;67251;50.844;7.978;2024-02-21T12:21:56;98798.69;;;10.47;58.43
77877;BME280;67251;50.844;7.978;2024-02-21T12:24:25;98787.78;;;10.55;57.83
77877;BME280;67251;50.844;7.978;2024-02-21T12:26:51;98779.75;;;10.48;58.10
77877;BME280;67251;50.844;7.978;2024-02-21T12:29:18;98778.94;;;10.68;55.84
77877;BME280;67251;50.844;7.978;2024-02-21T12:31:43;98767.47;;;10.87;56.41
77877;BME280;67251;50.844;7.978;2024-02-21T12:34:09;98768.28;;;10.88;56.79
77877;BME280;67251;50.844;7.978;2024-02-21T12:36:44;98754.19;;;10.33;56.80
77877;BME280;67251;50.844;7.978;2024-02-21T12:39:10;98751.00;;;10.03;57.29
77877;BME280;67251;50.844;7.978;2024-02-21T12:41:36;98754.88;;;10.07;58.57
77877;BME280;67251;50.844;7.978;2024-02-21T12:44:06;98748.34;;;10.09;57.85
77877;BME280;67251;50.844;7.978;2024-02-21T12:46:36;98742.16;;;10.02;59.07
77877;BME280;67251;50.844;7.978;2024-02-21T12:49:02;98742.31;;;9.94;58.95
77877;BME280;67251;50.844;7.978;2024-02-21T12:51:28;98743.41;;;10.13;58.51
77877;BME280;67251;50.844;7.978;2024-02-21T12:53:54;98738.50;;;10.16;57.99
77877;BME280;67251;50.844;7.978;2024-02-21T12:56:20;98715.84;;;10.12;57.96
77877;BME280;67251;50.844;7.978;2024-02-21T12:58:45;98713.66;;;9.75;59.55
77877;BME280;67251;50.844;7.978;2024-02-21T13:01:11;98706.50;;;9.40;58.82
77877;BME280;67251;50.844;7.978;2024-02-21T13:03:36;98701.81;;;9.14;59.91
77877;BME280;67251;50.844;7.978;2024-02-21T13:06:02;98695.09;;;8.90;61.75
77877;BME280;67251;50.844;7.978;2024-02-21T13:08:27;98698.47;;;9.06;61.32
77877;BME280;67251;50.844;7.978;2024-02-21T13:10:53;98691.47;;;9.33;60.50